Los Gatos, CA

3:46 AM PDT on September 20, 2014 (GMT -0700)
Summit | Change Station
CLOSE
Current Station
Personal Weather Station
Location: Los Gatos, CA
Elevation: 1631 ft
Nearby Weather Stations

Elev 1631 ft 37.13 °N, 121.95 °W | Updated 12 minutes ago

Mostly Cloudy
Mostly Cloudy
57.5 °F
Feels Like 57.5 °F
N
0.0
Wind Variable Wind from NNW
Gusts 0.0 mph

Today
High -- | Low -- °F
--% Chance of Precip.
Yesterday
High -- | Low -- °F
Precip. -- in
6:53 AM 7:07 PM
Waning Crescent, 13% visible
Pressure 29.91 in
Visibility 9.0 miles
Clouds Overcast 300 ft
Dew Point 56 °F
Humidity 94%
Rainfall 0.00 in
Snow Depth 0 in , 1 in , 1 in
UV 0 out of 12
Pollen 4.70 out of 12
Air Quality Not available.
Flu Activity Not available.
METAR KWVI 200953Z AUTO 02003KT 9SM OVC003 18/16 A2991 RMK AO2 SLP126 T01780156

More Conditions Fewer Conditions

Pressure 29.91 in
Visibility 9.0 miles
Clouds Overcast 300 ft
Dew Point 56 °F
Humidity 94%
Rainfall 0.00 in
Snow Depth 0 in , 1 in , 1 in
UV 0 out of 12
Pollen 4.70 out of 12
Air Quality Not available.
Flu Activity Not available.
METAR KWVI 200953Z AUTO 02003KT 9SM OVC003 18/16 A2991 RMK AO2 SLP126 T01780156

More Conditions Fewer Conditions

10-Day Weather Forecast

Almanac

Astronomy

Sep. 20, 2014 Rise Set
Actual Time 6:53 AM PDT 7:07 PM PDT
Civil Twilight 6:27 AM PDT 7:33 PM PDT
Nautical Twilight 5:57 AM PDT 8:03 PM PDT
Astronomical Twilight 5:26 AM PDT 8:34 PM PDT
Moon 3:41 AM PDT 5:10 PM PDT
Length of Visible Light 13h 05m
Length of Day
12h 13m
Tomorrow will be 2m 21s shorter.
Waning Crescent, 13% of the Moon is Illuminated
Today
Waning Crescent
Sep 24
New
Oct 1
First Quarter
Oct 8
Full
Oct 15
Last Quarter

Today's Extremes

State Highs State Lows

Community

WunderPhotos

Upload Photos

1,754,827 photos uploaded!

Nearby

Air Quality

  Air Quality AQ Index Pollutant
Yesterday Good
OZONE
Yesterday Good
PM2.5
Saturday Moderate
PM2.5
Sunday Moderate
PM2.5
Monday Good
OZONE
Tuesday Good
OZONE
Wednesday Good
OZONE

Snow Depth

Station Depth Elevation
Blue Lakes 0 in 8000 ft
Summit Meadow 0 in 9122 ft
Leavitt Meadows 1 in 7200 ft
Adin Mountain 1 in 6200 ft
Tahoe City Cross 0 in 6750 ft

Earthquake Activity

City Distance Mag. Time & Date
Livermore, California 37 miles 2.6 3:37 AM PDT
2014-09-19
The Geysers, California 118 miles 2.5 11:29 PM PDT
2014-09-17
Minimum magnitude displayed is 2.5.

Coastal Water Temperatures

Place Temperature
Monterey, CA 63.0 °F
Redwood City, CA 73.0 °F

Nearby Weather Stations